sensor_id;sensor_type;location;lat;lon;timestamp;temperature;humidity
69204;DHT22;56317;27.658;85.326;2024-02-28T00:02:06;5.40;88.30
69204;DHT22;56317;27.658;85.326;2024-02-28T00:04:33;5.30;1.00
69204;DHT22;56317;27.658;85.326;2024-02-28T00:07:00;5.30;1.00
69204;DHT22;56317;27.658;85.326;2024-02-28T00:09:27;5.20;1.00
69204;DHT22;56317;27.658;85.326;2024-02-28T00:11:54;5.20;1.00
69204;DHT22;56317;27.658;85.326;2024-02-28T00:14:22;5.10;9.60
69204;DHT22;56317;27.658;85.326;2024-02-28T00:16:49;5.20;99.90
69204;DHT22;56317;27.658;85.326;2024-02-28T00:19:17;5.30;99.90
69204;DHT22;56317;27.658;85.326;2024-02-28T00:21:46;5.50;99.90
69204;DHT22;56317;27.658;85.326;2024-02-28T00:24:13;5.50;99.90
69204;DHT22;56317;27.658;85.326;2024-02-28T00:26:44;5.60;99.90
69204;DHT22;56317;27.658;85.326;2024-02-28T00:29:11;5.70;99.90
69204;DHT22;56317;27.658;85.326;2024-02-28T00:31:38;5.60;99.90
69204;DHT22;56317;27.658;85.326;2024-02-28T00:34:05;5.60;99.90
69204;DHT22;56317;27.658;85.326;2024-02-28T00:36:35;5.50;99.90
69204;DHT22;56317;27.658;85.326;2024-02-28T00:39:02;5.40;99.90
69204;DHT22;56317;27.658;85.326;2024-02-28T00:41:30;5.50;1.00
69204;DHT22;56317;27.658;85.326;2024-02-28T00:43:57;5.50;99.90
69204;DHT22;56317;27.658;85.326;2024-02-28T00:46:24;5.80;99.90
69204;DHT22;56317;27.658;85.326;2024-02-28T00:48:51;5.90;1.00
69204;DHT22;56317;27.658;85.326;2024-02-28T00:51:19;6.00;1.00
69204;DHT22;56317;27.658;85.326;2024-02-28T00:53:46;5.90;1.00
69204;DHT22;56317;27.658;85.326;2024-02-28T00:56:13;5.80;99.90
69204;DHT22;56317;27.658;85.326;2024-02-28T00:58:40;5.80;99.90
69204;DHT22;56317;27.658;85.326;2024-02-28T01:01:07;5.60;1.00
69204;DHT22;56317;27.658;85.326;2024-02-28T01:03:35;5.80;1.00
69204;DHT22;56317;27.658;85.326;2024-02-28T01:06:02;6.10;1.00
69204;DHT22;56317;27.658;85.326;2024-02-28T01:08:30;6.20;99.90
69204;DHT22;56317;27.658;85.326;2024-02-28T01:10:57;6.40;93.60
69204;DHT22;56317;27.658;85.326;2024-02-28T01:13:25;6.40;1.00
69204;DHT22;56317;27.658;85.326;2024-02-28T01:15:52;6.50;99.90
69204;DHT22;56317;27.658;85.326;2024-02-28T01:18:20;6.50;1.00
69204;DHT22;56317;27.658;85.326;2024-02-28T01:20:47;6.50;99.90
69204;DHT22;56317;27.658;85.326;2024-02-28T01:23:14;6.60;99.90
69204;DHT22;56317;27.658;85.326;2024-02-28T01:25:41;6.90;1.00
69204;DHT22;56317;27.658;85.326;2024-02-28T01:28:09;7.00;33.70
69204;DHT22;56317;27.658;85.326;2024-02-28T01:30:36;7.20;1.00
69204;DHT22;56317;27.658;85.326;2024-02-28T01:33:03;7.30;99.90
69204;DHT22;56317;27.658;85.326;2024-02-28T01:35:30;7.60;16.40
69204;DHT22;56317;27.658;85.326;2024-02-28T01:37:57;7.80;1.00
69204;DHT22;56317;27.658;85.326;2024-02-28T01:40:24;8.00;99.90
69204;DHT22;56317;27.658;85.326;2024-02-28T01:42:52;8.10;99.90
69204;DHT22;56317;27.658;85.326;2024-02-28T01:45:19;8.10;99.90
69204;DHT22;56317;27.658;85.326;2024-02-28T01:47:46;8.20;99.90
69204;DHT22;56317;27.658;85.326;2024-02-28T01:50:13;8.30;80.10
69204;DHT22;56317;27.658;85.326;2024-02-28T01:52:41;8.40;19.30
69204;DHT22;56317;27.658;85.326;2024-02-28T01:55:08;8.50;1.00
69204;DHT22;56317;27.658;85.326;2024-02-28T01:57:37;8.60;1.00
69204;DHT22;56317;27.658;85.326;2024-02-28T02:00:06;8.70;1.00
69204;DHT22;56317;27.658;85.326;2024-02-28T02:02:36;8.80;1.00
69204;DHT22;56317;27.658;85.326;2024-02-28T02:05:04;9.00;1.00
69204;DHT22;56317;27.658;85.326;2024-02-28T02:07:31;9.10;99.90
69204;DHT22;56317;27.658;85.326;2024-02-28T02:09:59;9.30;99.90
69204;DHT22;56317;27.658;85.326;2024-02-28T02:12:26;9.50;99.90
69204;DHT22;56317;27.658;85.326;2024-02-28T02:14:53;9.70;99.90
69204;DHT22;56317;27.658;85.326;2024-02-28T02:17:20;9.80;99.90
69204;DHT22;56317;27.658;85.326;2024-02-28T02:19:48;10.00;99.90
69204;DHT22;56317;27.658;85.326;2024-02-28T02:22:15;10.20;99.90
69204;DHT22;56317;27.658;85.326;2024-02-28T02:24:42;10.40;99.90
69204;DHT22;56317;27.658;85.326;2024-02-28T02:27:09;10.60;99.90
69204;DHT22;56317;27.658;85.326;2024-02-28T02:29:36;10.90;99.90
69204;DHT22;56317;27.658;85.326;2024-02-28T02:32:04;11.10;99.90
69204;DHT22;56317;27.658;85.326;2024-02-28T02:34:31;11.40;99.90
69204;DHT22;56317;27.658;85.326;2024-02-28T02:36:58;11.50;97.60
69204;DHT22;56317;27.658;85.326;2024-02-28T02:39:26;11.80;56.90
69204;DHT22;56317;27.658;85.326;2024-02-28T02:41:53;11.90;27.20
69204;DHT22;56317;27.658;85.326;2024-02-28T02:44:20;12.00;1.00
69204;DHT22;56317;27.658;85.326;2024-02-28T02:46:47;12.20;1.00
69204;DHT22;56317;27.658;85.326;2024-02-28T02:49:15;12.40;1.00
69204;DHT22;56317;27.658;85.326;2024-02-28T02:51:43;12.70;1.00
69204;DHT22;56317;27.658;85.326;2024-02-28T02:54:10;12.90;1.00
69204;DHT22;56317;27.658;85.326;2024-02-28T02:56:40;13.00;1.00
69204;DHT22;56317;27.658;85.326;2024-02-28T02:59:07;13.20;1.00
69204;DHT22;56317;27.658;85.326;2024-02-28T03:01:35;13.40;1.00
69204;DHT22;56317;27.658;85.326;2024-02-28T03:04:02;13.70;1.00
69204;DHT22;56317;27.658;85.326;2024-02-28T03:06:29;13.80;1.00
69204;DHT22;56317;27.658;85.326;2024-02-28T03:08:56;13.90;1.00
69204;DHT22;56317;27.658;85.326;2024-02-28T03:11:23;14.10;1.00
69204;DHT22;56317;27.658;85.326;2024-02-28T03:13:51;14.10;1.00
69204;DHT22;56317;27.658;85.326;2024-02-28T03:16:18;14.30;1.00
69204;DHT22;56317;27.658;85.326;2024-02-28T03:18:45;14.40;1.00
69204;DHT22;56317;27.658;85.326;2024-02-28T03:21:12;14.60;1.00
69204;DHT22;56317;27.658;85.326;2024-02-28T03:23:40;14.90;1.00
69204;DHT22;56317;27.658;85.326;2024-02-28T03:26:07;15.20;1.00
69204;DHT22;56317;27.658;85.326;2024-02-28T03:28:34;15.30;99.90
69204;DHT22;56317;27.658;85.326;2024-02-28T03:31:01;15.50;99.90
69204;DHT22;56317;27.658;85.326;2024-02-28T03:33:28;15.80;99.90
69204;DHT22;56317;27.658;85.326;2024-02-28T03:35:58;15.70;99.90
69204;DHT22;56317;27.658;85.326;2024-02-28T03:38:25;15.90;99.90
69204;DHT22;56317;27.658;85.326;2024-02-28T03:40:52;16.20;99.90
69204;DHT22;56317;27.658;85.326;2024-02-28T03:43:22;16.30;99.90
69204;DHT22;56317;27.658;85.326;2024-02-28T03:45:50;16.50;99.90
69204;DHT22;56317;27.658;85.326;2024-02-28T03:48:17;16.70;99.90
69204;DHT22;56317;27.658;85.326;2024-02-28T03:50:45;17.00;99.90
69204;DHT22;56317;27.658;85.326;2024-02-28T03:53:12;17.20;99.90
69204;DHT22;56317;27.658;85.326;2024-02-28T03:55:39;17.50;99.90
69204;DHT22;56317;27.658;85.326;2024-02-28T03:58:06;17.90;99.90
69204;DHT22;56317;27.658;85.326;2024-02-28T04:00:35;18.20;99.90
69204;DHT22;56317;27.658;85.326;2024-02-28T04:03:03;18.40;99.90
69204;DHT22;56317;27.658;85.326;2024-02-28T04:05:30;18.50;99.90
69204;DHT22;56317;27.658;85.326;2024-02-28T04:07:58;18.60;99.90
69204;DHT22;56317;27.658;85.326;2024-02-28T04:10:25;18.90;99.90
69204;DHT22;56317;27.658;85.326;2024-02-28T04:12:52;19.30;99.90
69204;DHT22;56317;27.658;85.326;2024-02-28T04:15:19;19.60;99.90
69204;DHT22;56317;27.658;85.326;2024-02-28T04:17:47;19.80;99.90
69204;DHT22;56317;27.658;85.326;2024-02-28T04:20:14;20.00;99.90
69204;DHT22;56317;27.658;85.326;2024-02-28T04:22:41;20.20;99.90
69204;DHT22;56317;27.658;85.326;2024-02-28T04:25:09;20.70;99.90
69204;DHT22;56317;27.658;85.326;2024-02-28T04:27:41;21.10;99.90
69204;DHT22;56317;27.658;85.326;2024-02-28T04:30:11;21.40;99.90
69204;DHT22;56317;27.658;85.326;2024-02-28T04:32:38;21.60;99.90
69204;DHT22;56317;27.658;85.326;2024-02-28T04:35:05;21.80;99.90
69204;DHT22;56317;27.658;85.326;2024-02-28T04:37:34;22.20;99.90
69204;DHT22;56317;27.658;85.326;2024-02-28T04:40:04;22.40;99.90
69204;DHT22;56317;27.658;85.326;2024-02-28T04:42:33;22.50;99.90
69204;DHT22;56317;27.658;85.326;2024-02-28T04:45:00;23.10;99.90
69204;DHT22;56317;27.658;85.326;2024-02-28T04:47:27;23.50;99.90
69204;DHT22;56317;27.658;85.326;2024-02-28T04:49:54;23.70;99.90
69204;DHT22;56317;27.658;85.326;2024-02-28T04:52:22;24.10;99.90
69204;DHT22;56317;27.658;85.326;2024-02-28T04:54:49;27.20;99.90
69204;DHT22;56317;27.658;85.326;2024-02-28T04:57:16;32.00;99.90
69204;DHT22;56317;27.658;85.326;2024-02-28T04:59:44;34.70;99.90
69204;DHT22;56317;27.658;85.326;2024-02-28T05:02:13;36.20;99.90
69204;DHT22;56317;27.658;85.326;2024-02-28T05:04:54;37.30;99.90
69204;DHT22;56317;27.658;85.326;2024-02-28T05:07:21;39.20;99.90
69204;DHT22;56317;27.658;85.326;2024-02-28T05:09:48;40.00;99.90
69204;DHT22;56317;27.658;85.326;2024-02-28T05:12:16;40.00;99.90
69204;DHT22;56317;27.658;85.326;2024-02-28T05:14:43;39.80;99.90
69204;DHT22;56317;27.658;85.326;2024-02-28T05:17:16;41.50;99.90
69204;DHT22;56317;27.658;85.326;2024-02-28T05:19:44;42.60;99.90
69204;DHT22;56317;27.658;85.326;2024-02-28T05:22:11;43.00;99.90
69204;DHT22;56317;27.658;85.326;2024-02-28T05:24:38;42.90;99.90
69204;DHT22;56317;27.658;85.326;2024-02-28T05:27:05;43.70;99.90
69204;DHT22;56317;27.658;85.326;2024-02-28T05:29:33;44.50;99.90
69204;DHT22;56317;27.658;85.326;2024-02-28T05:32:00;45.80;99.90
69204;DHT22;56317;27.658;85.326;2024-02-28T05:34:27;46.10;99.90
69204;DHT22;56317;27.658;85.326;2024-02-28T05:36:54;44.80;99.90
69204;DHT22;56317;27.658;85.326;2024-02-28T05:39:22;43.20;99.90
69204;DHT22;56317;27.658;85.326;2024-02-28T05:41:49;41.30;99.90
69204;DHT22;56317;27.658;85.326;2024-02-28T05:44:16;43.10;99.90
69204;DHT22;56317;27.658;85.326;2024-02-28T05:46:43;45.70;99.90
69204;DHT22;56317;27.658;85.326;2024-02-28T05:49:12;46.40;99.90
69204;DHT22;56317;27.658;85.326;2024-02-28T05:51:39;46.80;99.90
69204;DHT22;56317;27.658;85.326;2024-02-28T05:54:10;46.00;99.90
69204;DHT22;56317;27.658;85.326;2024-02-28T05:56:38;46.70;99.90
69204;DHT22;56317;27.658;85.326;2024-02-28T05:59:06;44.60;99.90
69204;DHT22;56317;27.658;85.326;2024-02-28T06:01:33;42.40;99.90
69204;DHT22;56317;27.658;85.326;2024-02-28T06:04:00;42.80;99.90
69204;DHT22;56317;27.658;85.326;2024-02-28T06:06:28;41.80;99.90
69204;DHT22;56317;27.658;85.326;2024-02-28T06:08:55;43.50;99.90
69204;DHT22;56317;27.658;85.326;2024-02-28T06:11:22;46.30;99.90
69204;DHT22;56317;27.658;85.326;2024-02-28T06:13:59;47.60;99.90
69204;DHT22;56317;27.658;85.326;2024-02-28T06:16:38;46.00;99.90
69204;DHT22;56317;27.658;85.326;2024-02-28T06:19:35;46.00;99.90
69204;DHT22;56317;27.658;85.326;2024-02-28T06:22:03;48.00;99.90
69204;DHT22;56317;27.658;85.326;2024-02-28T06:24:33;49.70;99.90
69204;DHT22;56317;27.658;85.326;2024-02-28T06:27:00;51.20;99.90
69204;DHT22;56317;27.658;85.326;2024-02-28T06:29:28;51.60;99.90
69204;DHT22;56317;27.658;85.326;2024-02-28T06:31:55;51.80;99.90
69204;DHT22;56317;27.658;85.326;2024-02-28T06:34:23;51.70;99.90
69204;DHT22;56317;27.658;85.326;2024-02-28T06:36:54;52.00;99.90
69204;DHT22;56317;27.658;85.326;2024-02-28T06:39:21;52.10;99.90
69204;DHT22;56317;27.658;85.326;2024-02-28T06:41:48;52.00;99.90
69204;DHT22;56317;27.658;85.326;2024-02-28T06:44:21;52.70;99.90
69204;DHT22;56317;27.658;85.326;2024-02-28T06:46:48;53.00;99.90
69204;DHT22;56317;27.658;85.326;2024-02-28T06:49:15;53.90;99.90
69204;DHT22;56317;27.658;85.326;2024-02-28T06:51:44;54.60;99.90
69204;DHT22;56317;27.658;85.326;2024-02-28T06:54:11;54.20;99.90
69204;DHT22;56317;27.658;85.326;2024-02-28T06:56:39;53.40;99.90
69204;DHT22;56317;27.658;85.326;2024-02-28T06:59:06;53.60;99.90
69204;DHT22;56317;27.658;85.326;2024-02-28T07:01:33;54.60;99.90
69204;DHT22;56317;27.658;85.326;2024-02-28T07:04:01;54.40;99.90
69204;DHT22;56317;27.658;85.326;2024-02-28T07:06:28;55.00;99.90
69204;DHT22;56317;27.658;85.326;2024-02-28T07:08:55;54.80;99.90
69204;DHT22;56317;27.658;85.326;2024-02-28T07:11:23;54.30;99.90
69204;DHT22;56317;27.658;85.326;2024-02-28T07:13:50;54.70;99.90
69204;DHT22;56317;27.658;85.326;2024-02-28T07:16:17;55.10;99.90
69204;DHT22;56317;27.658;85.326;2024-02-28T07:18:44;55.00;99.90
69204;DHT22;56317;27.658;85.326;2024-02-28T07:21:11;53.40;99.90
69204;DHT22;56317;27.658;85.326;2024-02-28T07:23:42;53.20;99.90
69204;DHT22;56317;27.658;85.326;2024-02-28T07:26:13;54.60;99.90
69204;DHT22;56317;27.658;85.326;2024-02-28T07:28:40;53.70;99.90
69204;DHT22;56317;27.658;85.326;2024-02-28T07:31:15;54.30;99.90
69204;DHT22;56317;27.658;85.326;2024-02-28T07:33:44;54.70;99.90
69204;DHT22;56317;27.658;85.326;2024-02-28T07:36:11;53.20;99.90
69204;DHT22;56317;27.658;85.326;2024-02-28T07:38:41;52.60;99.90
69204;DHT22;56317;27.658;85.326;2024-02-28T07:41:08;52.80;99.90
69204;DHT22;56317;27.658;85.326;2024-02-28T07:43:36;52.40;99.90
69204;DHT22;56317;27.658;85.326;2024-02-28T07:46:09;53.40;99.90
69204;DHT22;56317;27.658;85.326;2024-02-28T07:48:40;54.40;99.90
69204;DHT22;56317;27.658;85.326;2024-02-28T07:51:08;54.70;99.90
69204;DHT22;56317;27.658;85.326;2024-02-28T07:53:36;54.40;99.90
69204;DHT22;56317;27.658;85.326;2024-02-28T07:56:03;55.00;99.90
69204;DHT22;56317;27.658;85.326;2024-02-28T07:58:30;54.30;99.90
69204;DHT22;56317;27.658;85.326;2024-02-28T08:00:57;53.70;99.90
69204;DHT22;56317;27.658;85.326;2024-02-28T08:03:25;53.10;99.90
69204;DHT22;56317;27.658;85.326;2024-02-28T08:05:52;53.10;99.90
69204;DHT22;56317;27.658;85.326;2024-02-28T08:08:19;50.60;99.90
69204;DHT22;56317;27.658;85.326;2024-02-28T08:10:46;50.20;99.90
69204;DHT22;56317;27.658;85.326;2024-02-28T08:13:15;50.90;99.90
69204;DHT22;56317;27.658;85.326;2024-02-28T08:15:42;51.80;99.90
69204;DHT22;56317;27.658;85.326;2024-02-28T08:18:10;52.90;99.90
69204;DHT22;56317;27.658;85.326;2024-02-28T08:20:40;51.90;99.90
69204;DHT22;56317;27.658;85.326;2024-02-28T08:23:10;51.60;99.90
69204;DHT22;56317;27.658;85.326;2024-02-28T08:25:43;51.00;99.90
69204;DHT22;56317;27.658;85.326;2024-02-28T08:28:10;50.60;99.90
69204;DHT22;56317;27.658;85.326;2024-02-28T08:30:38;51.10;99.90
69204;DHT22;56317;27.658;85.326;2024-02-28T08:33:06;49.80;99.90
69204;DHT22;56317;27.658;85.326;2024-02-28T08:35:35;49.90;99.90
69204;DHT22;56317;27.658;85.326;2024-02-28T08:38:06;51.10;99.90
69204;DHT22;56317;27.658;85.326;2024-02-28T08:40:33;47.90;99.90
69204;DHT22;56317;27.658;85.326;2024-02-28T08:43:00;45.40;99.90
69204;DHT22;56317;27.658;85.326;2024-02-28T08:45:27;45.10;99.90
69204;DHT22;56317;27.658;85.326;2024-02-28T08:47:55;46.20;99.90
69204;DHT22;56317;27.658;85.326;2024-02-28T08:50:24;44.80;99.90
69204;DHT22;56317;27.658;85.326;2024-02-28T08:52:51;46.10;99.90
69204;DHT22;56317;27.658;85.326;2024-02-28T08:55:19;41.60;99.90
69204;DHT22;56317;27.658;85.326;2024-02-28T08:57:48;40.50;99.90
69204;DHT22;56317;27.658;85.326;2024-02-28T09:00:19;39.30;99.90
69204;DHT22;56317;27.658;85.326;2024-02-28T09:02:48;37.80;99.90
69204;DHT22;56317;27.658;85.326;2024-02-28T09:05:24;38.30;99.90
69204;DHT22;56317;27.658;85.326;2024-02-28T09:07:54;35.90;99.90
69204;DHT22;56317;27.658;85.326;2024-02-28T09:10:24;34.00;99.90
69204;DHT22;56317;27.658;85.326;2024-02-28T09:12:52;32.90;99.90
69204;DHT22;56317;27.658;85.326;2024-02-28T09:15:20;34.60;99.90
69204;DHT22;56317;27.658;85.326;2024-02-28T09:17:47;36.40;99.90
69204;DHT22;56317;27.658;85.326;2024-02-28T09:20:15;35.70;99.90
69204;DHT22;56317;27.658;85.326;2024-02-28T09:22:43;35.00;99.90
69204;DHT22;56317;27.658;85.326;2024-02-28T09:25:10;35.10;99.90
69204;DHT22;56317;27.658;85.326;2024-02-28T09:27:38;34.70;99.90
69204;DHT22;56317;27.658;85.326;2024-02-28T09:30:06;32.80;99.90
69204;DHT22;56317;27.658;85.326;2024-02-28T09:32:35;31.50;99.90
69204;DHT22;56317;27.658;85.326;2024-02-28T09:35:06;33.00;99.90
69204;DHT22;56317;27.658;85.326;2024-02-28T09:37:33;34.60;99.90
69204;DHT22;56317;27.658;85.326;2024-02-28T09:40:00;34.60;99.90
69204;DHT22;56317;27.658;85.326;2024-02-28T09:42:29;33.50;99.90
69204;DHT22;56317;27.658;85.326;2024-02-28T09:44:58;33.00;99.90
69204;DHT22;56317;27.658;85.326;2024-02-28T09:47:27;32.90;99.90
69204;DHT22;56317;27.658;85.326;2024-02-28T09:49:57;32.90;99.90
69204;DHT22;56317;27.658;85.326;2024-02-28T09:52:28;33.90;99.90
69204;DHT22;56317;27.658;85.326;2024-02-28T09:54:55;33.70;99.90
69204;DHT22;56317;27.658;85.326;2024-02-28T09:57:23;32.20;99.90
69204;DHT22;56317;27.658;85.326;2024-02-28T09:59:56;32.10;99.90
69204;DHT22;56317;27.658;85.326;2024-02-28T10:02:24;31.20;99.90
69204;DHT22;56317;27.658;85.326;2024-02-28T10:04:52;30.60;99.90
69204;DHT22;56317;27.658;85.326;2024-02-28T10:07:20;29.50;99.90
69204;DHT22;56317;27.658;85.326;2024-02-28T10:09:48;28.80;99.90
69204;DHT22;56317;27.658;85.326;2024-02-28T10:12:15;30.20;99.90
69204;DHT22;56317;27.658;85.326;2024-02-28T10:14:42;29.40;99.90
69204;DHT22;56317;27.658;85.326;2024-02-28T10:17:09;29.30;99.90
69204;DHT22;56317;27.658;85.326;2024-02-28T10:19:37;28.80;99.90
69204;DHT22;56317;27.658;85.326;2024-02-28T10:22:06;29.30;99.90
69204;DHT22;56317;27.658;85.326;2024-02-28T10:24:36;26.60;99.90
69204;DHT22;56317;27.658;85.326;2024-02-28T10:27:06;25.20;99.90
69204;DHT22;56317;27.658;85.326;2024-02-28T10:29:34;25.10;99.90
69204;DHT22;56317;27.658;85.326;2024-02-28T10:32:01;24.70;99.90
69204;DHT22;56317;27.658;85.326;2024-02-28T10:34:29;24.80;99.90
69204;DHT22;56317;27.658;85.326;2024-02-28T10:36:57;25.50;99.90
69204;DHT22;56317;27.658;85.326;2024-02-28T10:39:25;28.80;99.90
69204;DHT22;56317;27.658;85.326;2024-02-28T10:41:56;28.10;99.90
69204;DHT22;56317;27.658;85.326;2024-02-28T10:44:24;27.10;99.90
69204;DHT22;56317;27.658;85.326;2024-02-28T10:46:54;26.60;99.90
69204;DHT22;56317;27.658;85.326;2024-02-28T10:49:27;26.80;99.90
69204;DHT22;56317;27.658;85.326;2024-02-28T10:51:57;25.70;99.90
69204;DHT22;56317;27.658;85.326;2024-02-28T10:54:29;25.30;99.90
69204;DHT22;56317;27.658;85.326;2024-02-28T10:56:58;25.20;99.90
69204;DHT22;56317;27.658;85.326;2024-02-28T10:59:28;25.10;99.90
69204;DHT22;56317;27.658;85.326;2024-02-28T11:01:56;25.20;99.90
69204;DHT22;56317;27.658;85.326;2024-02-28T11:04:24;24.80;99.90
69204;DHT22;56317;27.658;85.326;2024-02-28T11:06:55;24.60;99.90
69204;DHT22;56317;27.658;85.326;2024-02-28T11:09:24;24.00;99.90
69204;DHT22;56317;27.658;85.326;2024-02-28T11:11:55;23.50;99.90
69204;DHT22;56317;27.658;85.326;2024-02-28T11:14:23;22.90;99.90
69204;DHT22;56317;27.658;85.326;2024-02-28T11:17:04;22.50;99.90
69204;DHT22;56317;27.658;85.326;2024-02-28T11:19:32;21.50;99.90
69204;DHT22;56317;27.658;85.326;2024-02-28T11:22:00;21.00;99.90
69204;DHT22;56317;27.658;85.326;2024-02-28T11:24:34;21.10;99.90
69204;DHT22;56317;27.658;85.326;2024-02-28T11:27:03;20.60;99.90
69204;DHT22;56317;27.658;85.326;2024-02-28T11:29:30;20.00;99.90
69204;DHT22;56317;27.658;85.326;2024-02-28T11:31:58;19.10;99.90
69204;DHT22;56317;27.658;85.326;2024-02-28T11:34:25;18.60;99.90
69204;DHT22;56317;27.658;85.326;2024-02-28T11:36:52;18.30;99.90
69204;DHT22;56317;27.658;85.326;2024-02-28T11:39:23;18.10;99.90
69204;DHT22;56317;27.658;85.326;2024-02-28T11:41:55;17.90;99.90
69204;DHT22;56317;27.658;85.326;2024-02-28T11:44:22;17.80;99.90
69204;DHT22;56317;27.658;85.326;2024-02-28T11:46:50;17.60;99.90
69204;DHT22;56317;27.658;85.326;2024-02-28T11:49:18;17.30;99.90
69204;DHT22;56317;27.658;85.326;2024-02-28T11:51:45;17.10;99.90
69204;DHT22;56317;27.658;85.326;2024-02-28T11:54:12;17.00;99.90
69204;DHT22;56317;27.658;85.326;2024-02-28T11:56:40;16.80;99.90
69204;DHT22;56317;27.658;85.326;2024-02-28T11:59:10;16.60;99.90
69204;DHT22;56317;27.658;85.326;2024-02-28T12:01:42;16.50;99.90
69204;DHT22;56317;27.658;85.326;2024-02-28T12:04:17;16.40;99.90
69204;DHT22;56317;27.658;85.326;2024-02-28T12:06:44;16.30;99.90
69204;DHT22;56317;27.658;85.326;2024-02-28T12:09:13;16.20;99.90
69204;DHT22;56317;27.658;85.326;2024-02-28T12:11:45;16.00;99.90
69204;DHT22;56317;27.658;85.326;2024-02-28T12:14:13;15.90;99.90
69204;DHT22;56317;27.658;85.326;2024-02-28T12:16:40;15.80;99.90
69204;DHT22;56317;27.658;85.326;2024-02-28T12:19:11;15.80;99.90
69204;DHT22;56317;27.658;85.326;2024-02-28T12:21:38;15.60;99.90
69204;DHT22;56317;27.658;85.326;2024-02-28T12:24:10;15.60;99.90
69204;DHT22;56317;27.658;85.326;2024-02-28T12:26:38;15.50;99.90
69204;DHT22;56317;27.658;85.326;2024-02-28T12:29:06;15.30;99.90
69204;DHT22;56317;27.658;85.326;2024-02-28T12:31:33;15.30;99.90
69204;DHT22;56317;27.658;85.326;2024-02-28T12:34:00;15.30;99.90
69204;DHT22;56317;27.658;85.326;2024-02-28T12:36:30;15.30;99.90
69204;DHT22;56317;27.658;85.326;2024-02-28T12:38:59;15.20;99.90
69204;DHT22;56317;27.658;85.326;2024-02-28T12:41:27;15.10;99.90
69204;DHT22;56317;27.658;85.326;2024-02-28T12:43:54;15.10;99.90
69204;DHT22;56317;27.658;85.326;2024-02-28T12:46:22;15.00;99.90
69204;DHT22;56317;27.658;85.326;2024-02-28T12:48:50;15.00;99.90
69204;DHT22;56317;27.658;85.326;2024-02-28T12:51:52;15.00;99.90
69204;DHT22;56317;27.658;85.326;2024-02-28T12:54:19;14.80;99.90
69204;DHT22;56317;27.658;85.326;2024-02-28T12:56:47;14.80;99.90
69204;DHT22;56317;27.658;85.326;2024-02-28T12:59:14;14.80;99.90
69204;DHT22;56317;27.658;85.326;2024-02-28T13:01:42;14.70;99.90
69204;DHT22;56317;27.658;85.326;2024-02-28T13:04:09;14.60;99.90
69204;DHT22;56317;27.658;85.326;2024-02-28T13:06:37;14.70;99.90
69204;DHT22;56317;27.658;85.326;2024-02-28T13:09:05;14.60;99.90
69204;DHT22;56317;27.658;85.326;2024-02-28T13:11:38;14.60;99.90
69204;DHT22;56317;27.658;85.326;2024-02-28T13:14:06;14.60;99.90
69204;DHT22;56317;27.658;85.326;2024-02-28T13:16:35;14.50;99.90
69204;DHT22;56317;27.658;85.326;2024-02-28T13:19:02;14.20;99.90
69204;DHT22;56317;27.658;85.326;2024-02-28T13:21:31;14.40;99.90
69204;DHT22;56317;27.658;85.326;2024-02-28T13:24:02;14.30;99.90
69204;DHT22;56317;27.658;85.326;2024-02-28T13:26:30;14.20;99.90
69204;DHT22;56317;27.658;85.326;2024-02-28T13:28:57;14.10;99.90
69204;DHT22;56317;27.658;85.326;2024-02-28T13:31:24;14.10;99.90
69204;DHT22;56317;27.658;85.326;2024-02-28T13:33:52;14.20;99.90
69204;DHT22;56317;27.658;85.326;2024-02-28T13:36:19;14.20;99.90
69204;DHT22;56317;27.658;85.326;2024-02-28T13:38:46;14.30;99.90
69204;DHT22;56317;27.658;85.326;2024-02-28T13:41:13;14.30;99.90
69204;DHT22;56317;27.658;85.326;2024-02-28T13:43:42;14.20;99.90
69204;DHT22;56317;27.658;85.326;2024-02-28T13:46:09;14.10;99.90
69204;DHT22;56317;27.658;85.326;2024-02-28T13:48:37;14.00;99.90
69204;DHT22;56317;27.658;85.326;2024-02-28T13:51:05;13.60;99.90
69204;DHT22;56317;27.658;85.326;2024-02-28T13:53:32;13.30;99.90
69204;DHT22;56317;27.658;85.326;2024-02-28T13:55:59;13.30;99.90
69204;DHT22;56317;27.658;85.326;2024-02-28T13:58:26;13.30;99.90
69204;DHT22;56317;27.658;85.326;2024-02-28T14:00:54;13.30;99.90
69204;DHT22;56317;27.658;85.326;2024-02-28T14:03:22;13.70;99.90
69204;DHT22;56317;27.658;85.326;2024-02-28T14:05:51;13.70;99.90
69204;DHT22;56317;27.658;85.326;2024-02-28T14:08:18;13.70;99.90
69204;DHT22;56317;27.658;85.326;2024-02-28T14:10:45;13.60;99.90
69204;DHT22;56317;27.658;85.326;2024-02-28T14:13:13;13.40;99.90
69204;DHT22;56317;27.658;85.326;2024-02-28T14:15:42;13.40;99.90
69204;DHT22;56317;27.658;85.326;2024-02-28T14:18:09;13.30;99.90
69204;DHT22;56317;27.658;85.326;2024-02-28T14:20:36;13.40;99.90
69204;DHT22;56317;27.658;85.326;2024-02-28T14:23:05;13.40;99.90
69204;DHT22;56317;27.658;85.326;2024-02-28T14:25:32;13.30;99.90
69204;DHT22;56317;27.658;85.326;2024-02-28T14:27:59;13.20;99.90
69204;DHT22;56317;27.658;85.326;2024-02-28T14:30:27;13.20;99.90
69204;DHT22;56317;27.658;85.326;2024-02-28T14:32:54;13.30;99.90
69204;DHT22;56317;27.658;85.326;2024-02-28T14:35:22;13.20;99.90
69204;DHT22;56317;27.658;85.326;2024-02-28T14:37:49;13.20;99.90
69204;DHT22;56317;27.658;85.326;2024-02-28T14:40:18;13.30;99.90
69204;DHT22;56317;27.658;85.326;2024-02-28T14:42:46;13.40;99.90
69204;DHT22;56317;27.658;85.326;2024-02-28T14:45:14;13.30;99.90
69204;DHT22;56317;27.658;85.326;2024-02-28T14:47:42;13.20;99.90
69204;DHT22;56317;27.658;85.326;2024-02-28T14:50:10;13.20;99.90
69204;DHT22;56317;27.658;85.326;2024-02-28T14:52:41;13.20;99.90
69204;DHT22;56317;27.658;85.326;2024-02-28T14:55:09;13.10;99.90
69204;DHT22;56317;27.658;85.326;2024-02-28T14:57:37;13.10;99.90
69204;DHT22;56317;27.658;85.326;2024-02-28T15:00:05;13.00;99.90
69204;DHT22;56317;27.658;85.326;2024-02-28T15:02:37;12.80;99.90
69204;DHT22;56317;27.658;85.326;2024-02-28T15:05:05;12.80;99.90
69204;DHT22;56317;27.658;85.326;2024-02-28T15:07:33;12.80;99.90
69204;DHT22;56317;27.658;85.326;2024-02-28T15:10:02;12.80;99.90
69204;DHT22;56317;27.658;85.326;2024-02-28T15:12:31;12.70;99.90
69204;DHT22;56317;27.658;85.326;2024-02-28T15:15:03;12.70;99.90
69204;DHT22;56317;27.658;85.326;2024-02-28T15:17:33;12.50;99.90
69204;DHT22;56317;27.658;85.326;2024-02-28T15:20:01;12.40;99.90
69204;DHT22;56317;27.658;85.326;2024-02-28T15:22:34;12.30;99.90
69204;DHT22;56317;27.658;85.326;2024-02-28T15:25:03;12.40;99.90
69204;DHT22;56317;27.658;85.326;2024-02-28T15:27:34;12.40;99.90